sensor_id;sensor_type;location;lat;lon;timestamp;pressure;altitude;pressure_sealevel;temperature;humidity
61205;BME280;47068;55.780;37.520;2023-01-08T00:01:25;101459.53;;;-15.68;55.01
61205;BME280;47068;55.780;37.520;2023-01-08T00:03:50;101457.53;;;-15.79;55.09
61205;BME280;47068;55.780;37.520;2023-01-08T00:06:18;101461.56;;;-15.87;55.67
61205;BME280;47068;55.780;37.520;2023-01-08T00:08:46;101454.66;;;-15.90;55.92
61205;BME280;47068;55.780;37.520;2023-01-08T00:11:12;101451.34;;;-15.87;56.47
61205;BME280;47068;55.780;37.520;2023-01-08T00:13:37;101441.41;;;-16.08;55.92
61205;BME280;47068;55.780;37.520;2023-01-08T00:16:03;101454.16;;;-16.08;56.76
61205;BME280;47068;55.780;37.520;2023-01-08T00:18:29;101450.81;;;-16.07;55.33
61205;BME280;47068;55.780;37.520;2023-01-08T00:20:54;101449.97;;;-16.06;56.76
61205;BME280;47068;55.780;37.520;2023-01-08T00:23:20;101444.78;;;-16.09;55.60
61205;BME280;47068;55.780;37.520;2023-01-08T00:25:45;101461.28;;;-15.98;55.72
61205;BME280;47068;55.780;37.520;2023-01-08T00:28:11;101435.22;;;-16.18;55.54
61205;BME280;47068;55.780;37.520;2023-01-08T00:30:36;101469.91;;;-15.93;55.19
61205;BME280;47068;55.780;37.520;2023-01-08T00:33:03;101473.44;;;-15.88;56.31
61205;BME280;47068;55.780;37.520;2023-01-08T00:35:28;101474.47;;;-15.81;56.02
61205;BME280;47068;55.780;37.520;2023-01-08T00:37:53;101467.84;;;-15.76;55.33
61205;BME280;47068;55.780;37.520;2023-01-08T00:40:19;101466.16;;;-15.74;54.97
61205;BME280;47068;55.780;37.520;2023-01-08T00:42:44;101432.56;;;-15.91;54.91
61205;BME280;47068;55.780;37.520;2023-01-08T00:45:10;101463.78;;;-15.68;55.58
61205;BME280;47068;55.780;37.520;2023-01-08T00:47:35;101466.16;;;-15.74;55.25
61205;BME280;47068;55.780;37.520;2023-01-08T00:50:01;101475.75;;;-15.66;54.83
61205;BME280;47068;55.780;37.520;2023-01-08T00:52:26;101474.13;;;-15.64;55.82
61205;BME280;47068;55.780;37.520;2023-01-08T00:54:51;101470.16;;;-15.52;55.17
61205;BME280;47068;55.780;37.520;2023-01-08T00:57:17;101467.72;;;-15.46;55.42
61205;BME280;47068;55.780;37.520;2023-01-08T00:59:42;101461.06;;;-15.41;55.02
61205;BME280;47068;55.780;37.520;2023-01-08T01:02:08;101448.03;;;-15.52;55.18
61205;BME280;47068;55.780;37.520;2023-01-08T01:04:34;101467.94;;;-15.39;55.26
61205;BME280;47068;55.780;37.520;2023-01-08T01:06:59;101438.63;;;-15.54;55.32
61205;BME280;47068;55.780;37.520;2023-01-08T01:09:25;101476.63;;;-15.32;54.87
61205;BME280;47068;55.780;37.520;2023-01-08T01:11:50;101428.44;;;-15.54;54.87
61205;BME280;47068;55.780;37.520;2023-01-08T01:14:15;101470.78;;;-15.27;55.88
61205;BME280;47068;55.780;37.520;2023-01-08T01:16:41;101474.81;;;-15.36;55.22
61205;BME280;47068;55.780;37.520;2023-01-08T01:19:08;101464.53;;;-15.39;54.65
61205;BME280;47068;55.780;37.520;2023-01-08T01:21:33;101474.16;;;-15.29;54.50
61205;BME280;47068;55.780;37.520;2023-01-08T01:24:01;101476.72;;;-15.29;55.21
61205;BME280;47068;55.780;37.520;2023-01-08T01:26:26;101476.63;;;-15.32;54.04
61205;BME280;47068;55.780;37.520;2023-01-08T01:28:52;101469.00;;;-15.31;54.90
61205;BME280;47068;55.780;37.520;2023-01-08T01:31:19;101462.13;;;-15.33;53.22
61205;BME280;47068;55.780;37.520;2023-01-08T01:33:45;101460.22;;;-15.42;53.34
61205;BME280;47068;55.780;37.520;2023-01-08T01:36:11;101461.06;;;-15.41;55.00
61205;BME280;47068;55.780;37.520;2023-01-08T01:38:37;101456.09;;;-15.37;53.52
61205;BME280;47068;55.780;37.520;2023-01-08T01:41:03;101466.25;;;-15.38;53.55
61205;BME280;47068;55.780;37.520;2023-01-08T01:43:34;101428.13;;;-15.67;53.94
61205;BME280;47068;55.780;37.520;2023-01-08T01:45:59;101465.19;;;-15.46;54.15
61205;BME280;47068;55.780;37.520;2023-01-08T01:48:25;101459.97;;;-15.51;54.09
61205;BME280;47068;55.780;37.520;2023-01-08T01:50:52;101467.53;;;-15.55;54.08
61205;BME280;47068;55.780;37.520;2023-01-08T01:53:30;101463.94;;;-15.62;54.20
61205;BME280;47068;55.780;37.520;2023-01-08T01:55:57;101469.34;;;-15.50;54.27
61205;BME280;47068;55.780;37.520;2023-01-08T01:58:28;101467.88;;;-15.40;55.30
61205;BME280;47068;55.780;37.520;2023-01-08T02:00:56;101477.31;;;-15.38;54.84
61205;BME280;47068;55.780;37.520;2023-01-08T02:03:28;101472.13;;;-15.41;54.78
61205;BME280;47068;55.780;37.520;2023-01-08T02:13:50;101454.41;;;-15.36;54.76
61205;BME280;47068;55.780;37.520;2023-01-08T02:16:28;101461.25;;;-15.34;55.12
61205;BME280;47068;55.780;37.520;2023-01-08T02:19:06;101468.38;;;-15.22;54.90
61205;BME280;47068;55.780;37.520;2023-01-08T02:24:32;101482.03;;;-15.20;54.76
61205;BME280;47068;55.780;37.520;2023-01-08T02:27:07;101475.28;;;-15.18;54.36
61205;BME280;47068;55.780;37.520;2023-01-08T02:29:33;101463.28;;;-15.22;54.50
61205;BME280;47068;55.780;37.520;2023-01-08T02:31:59;101472.63;;;-15.23;55.56
61205;BME280;47068;55.780;37.520;2023-01-08T02:34:25;101469.25;;;-15.22;56.05
61205;BME280;47068;55.780;37.520;2023-01-08T02:36:55;101385.66;;;-15.65;55.90
61205;BME280;47068;55.780;37.520;2023-01-08T02:44:40;101467.03;;;-15.08;56.18
61205;BME280;47068;55.780;37.520;2023-01-08T02:47:12;101474.50;;;-15.15;55.72
61205;BME280;47068;55.780;37.520;2023-01-08T02:49:42;101411.56;;;-15.48;55.22
61205;BME280;47068;55.780;37.520;2023-01-08T02:52:12;101466.03;;;-15.14;56.08
61205;BME280;47068;55.780;37.520;2023-01-08T02:54:41;101456.50;;;-15.20;55.47
61205;BME280;47068;55.780;37.520;2023-01-08T02:57:14;101466.94;;;-15.11;56.07
61205;BME280;47068;55.780;37.520;2023-01-08T02:59:42;101460.25;;;-15.06;55.87
61205;BME280;47068;55.780;37.520;2023-01-08T03:02:09;101453.50;;;-15.04;55.64
61205;BME280;47068;55.780;37.520;2023-01-08T03:04:39;101470.47;;;-15.06;56.37
61205;BME280;47068;55.780;37.520;2023-01-08T03:07:07;101453.41;;;-15.08;55.43
61205;BME280;47068;55.780;37.520;2023-01-08T03:09:33;101456.63;;;-15.15;55.22
61205;BME280;47068;55.780;37.520;2023-01-08T03:12:14;101456.66;;;-15.14;56.05
61205;BME280;47068;55.780;37.520;2023-01-08T03:14:55;101459.91;;;-15.20;55.83
61205;BME280;47068;55.780;37.520;2023-01-08T03:17:35;101458.94;;;-15.25;55.02
61205;BME280;47068;55.780;37.520;2023-01-08T03:20:13;101465.81;;;-15.22;55.35
61205;BME280;47068;55.780;37.520;2023-01-08T03:22:43;101384.50;;;-15.76;55.03
61205;BME280;47068;55.780;37.520;2023-01-08T03:25:10;101420.78;;;-15.54;55.44
61205;BME280;47068;55.780;37.520;2023-01-08T03:27:44;101430.56;;;-15.37;55.15
61205;BME280;47068;55.780;37.520;2023-01-08T03:30:13;101481.78;;;-14.96;55.00
61205;BME280;47068;55.780;37.520;2023-01-08T03:32:40;101479.47;;;-14.87;55.68
61205;BME280;47068;55.780;37.520;2023-01-08T03:35:09;101479.47;;;-14.86;55.74
61205;BME280;47068;55.780;37.520;2023-01-08T03:37:39;101377.09;;;-15.32;55.05
61205;BME280;47068;55.780;37.520;2023-01-08T03:40:44;101475.66;;;-14.68;54.47
61205;BME280;47068;55.780;37.520;2023-01-08T03:43:02;101448.19;;;-14.77;55.10
61205;BME280;47068;55.780;37.520;2023-01-08T03:45:28;101476.75;;;-14.57;54.91
61205;BME280;47068;55.780;37.520;2023-01-08T03:47:56;101480.97;;;-14.59;54.36
61205;BME280;47068;55.780;37.520;2023-01-08T03:50:26;101468.88;;;-14.66;54.63
61205;BME280;47068;55.780;37.520;2023-01-08T03:52:54;101418.81;;;-14.96;54.58
61205;BME280;47068;55.780;37.520;2023-01-08T03:55:20;101477.78;;;-14.49;54.51
61205;BME280;47068;55.780;37.520;2023-01-08T03:57:45;101453.75;;;-14.59;54.84
61205;BME280;47068;55.780;37.520;2023-01-08T04:00:11;101475.44;;;-14.40;55.68
61205;BME280;47068;55.780;37.520;2023-01-08T04:02:36;101478.91;;;-14.38;55.32
61205;BME280;47068;55.780;37.520;2023-01-08T04:05:02;101477.16;;;-14.41;55.32
61205;BME280;47068;55.780;37.520;2023-01-08T04:07:27;101483.84;;;-14.44;55.16
61205;BME280;47068;55.780;37.520;2023-01-08T04:09:53;101473.59;;;-14.47;55.22
61205;BME280;47068;55.780;37.520;2023-01-08T04:12:18;101475.38;;;-14.43;55.93
61205;BME280;47068;55.780;37.520;2023-01-08T04:14:44;101480.66;;;-14.34;55.73
61205;BME280;47068;55.780;37.520;2023-01-08T04:17:10;101480.03;;;-14.24;56.13
61205;BME280;47068;55.780;37.520;2023-01-08T04:19:36;101485.25;;;-14.19;55.63
61205;BME280;47068;55.780;37.520;2023-01-08T04:22:02;101470.91;;;-14.13;55.54
61205;BME280;47068;55.780;37.520;2023-01-08T04:24:27;101454.50;;;-14.22;55.93
61205;BME280;47068;55.780;37.520;2023-01-08T04:26:53;101465.13;;;-14.04;55.81
61205;BME280;47068;55.780;37.520;2023-01-08T04:29:18;101449.63;;;-14.10;55.25
61205;BME280;47068;55.780;37.520;2023-01-08T04:31:44;101459.69;;;-14.19;55.28
61205;BME280;47068;55.780;37.520;2023-01-08T04:34:09;101474.28;;;-14.14;55.23
61205;BME280;47068;55.780;37.520;2023-01-08T04:36:35;101444.06;;;-14.33;54.97
61205;BME280;47068;55.780;37.520;2023-01-08T04:39:00;101492.16;;;-14.15;54.77
61205;BME280;47068;55.780;37.520;2023-01-08T04:41:26;101468.00;;;-14.28;54.97
61205;BME280;47068;55.780;37.520;2023-01-08T04:43:51;101465.38;;;-14.31;55.50
61205;BME280;47068;55.780;37.520;2023-01-08T04:46:17;101466.28;;;-14.29;55.40
61205;BME280;47068;55.780;37.520;2023-01-08T04:48:42;101469.03;;;-14.20;55.12
61205;BME280;47068;55.780;37.520;2023-01-08T04:51:08;101416.66;;;-14.40;55.44
61205;BME280;47068;55.780;37.520;2023-01-08T04:53:35;101462.44;;;-14.09;55.28
61205;BME280;47068;55.780;37.520;2023-01-08T04:56:06;101458.31;;;-14.04;55.16
61205;BME280;47068;55.780;37.520;2023-01-08T04:58:33;101458.31;;;-14.02;55.24
61205;BME280;47068;55.780;37.520;2023-01-08T05:00:59;101458.38;;;-14.01;55.64
61205;BME280;47068;55.780;37.520;2023-01-08T05:03:25;101462.69;;;-13.98;54.80
61205;BME280;47068;55.780;37.520;2023-01-08T05:05:51;101462.72;;;-13.97;54.98
61205;BME280;47068;55.780;37.520;2023-01-08T05:08:16;101456.03;;;-13.88;55.34
61205;BME280;47068;55.780;37.520;2023-01-08T05:10:42;101459.50;;;-13.86;54.78
61205;BME280;47068;55.780;37.520;2023-01-08T05:13:07;101466.47;;;-13.79;54.88
61205;BME280;47068;55.780;37.520;2023-01-08T05:15:32;101420.00;;;-14.01;54.78
61205;BME280;47068;55.780;37.520;2023-01-08T05:18:03;101456.13;;;-13.85;54.81
61205;BME280;47068;55.780;37.520;2023-01-08T05:20:29;101434.34;;;-14.07;54.46
61205;BME280;47068;55.780;37.520;2023-01-08T05:22:55;101462.66;;;-14.00;54.40
61205;BME280;47068;55.780;37.520;2023-01-08T05:25:23;101470.03;;;-14.13;55.46
61205;BME280;47068;55.780;37.520;2023-01-08T05:27:48;101438.13;;;-14.30;55.75
61205;BME280;47068;55.780;37.520;2023-01-08T05:30:14;101474.28;;;-14.14;55.64
61205;BME280;47068;55.780;37.520;2023-01-08T05:32:39;101442.47;;;-14.26;55.76
61205;BME280;47068;55.780;37.520;2023-01-08T05:35:05;101472.81;;;-14.03;55.79
61205;BME280;47068;55.780;37.520;2023-01-08T05:37:34;101165.81;;;-15.86;55.62
61205;BME280;47068;55.780;37.520;2023-01-08T05:40:00;101442.53;;;-14.25;55.94
61205;BME280;47068;55.780;37.520;2023-01-08T05:42:26;101465.09;;;-14.06;55.81
61205;BME280;47068;55.780;37.520;2023-01-08T05:44:51;101462.53;;;-14.06;56.38
61205;BME280;47068;55.780;37.520;2023-01-08T05:47:17;101469.25;;;-14.11;55.88
61205;BME280;47068;55.780;37.520;2023-01-08T05:49:42;101465.78;;;-14.13;55.71
61205;BME280;47068;55.780;37.520;2023-01-08T05:52:08;101460.59;;;-14.16;55.42
61205;BME280;47068;55.780;37.520;2023-01-08T05:54:33;101449.19;;;-14.31;55.91
61205;BME280;47068;55.780;37.520;2023-01-08T05:56:58;101411.81;;;-14.65;54.91
61205;BME280;47068;55.780;37.520;2023-01-08T05:59:24;101402.13;;;-14.82;55.53
61205;BME280;47068;55.780;37.520;2023-01-08T06:01:49;101465.84;;;-14.50;55.88
61205;BME280;47068;55.780;37.520;2023-01-08T06:04:15;101464.09;;;-14.53;55.67
61205;BME280;47068;55.780;37.520;2023-01-08T06:06:40;101408.97;;;-14.79;56.19
61205;BME280;47068;55.780;37.520;2023-01-08T06:09:06;101449.28;;;-14.67;55.81
61205;BME280;47068;55.780;37.520;2023-01-08T06:11:31;101435.28;;;-14.83;55.70
61205;BME280;47068;55.780;37.520;2023-01-08T06:13:57;101423.47;;;-14.80;56.00
61205;BME280;47068;55.780;37.520;2023-01-08T06:16:22;101431.25;;;-14.72;56.26
61205;BME280;47068;55.780;37.520;2023-01-08T06:18:48;101425.34;;;-14.71;56.39
61205;BME280;47068;55.780;37.520;2023-01-08T06:21:13;101444.22;;;-14.64;56.27
61205;BME280;47068;55.780;37.520;2023-01-08T06:23:39;101460.69;;;-14.52;55.68
61205;BME280;47068;55.780;37.520;2023-01-08T06:26:05;101465.09;;;-14.46;55.95
61205;BME280;47068;55.780;37.520;2023-01-08T06:28:31;101386.13;;;-14.73;56.58
61205;BME280;47068;55.780;37.520;2023-01-08T06:30:57;101457.03;;;-14.22;56.80
61205;BME280;47068;55.780;37.520;2023-01-08T06:33:23;101449.22;;;-14.30;55.80
61205;BME280;47068;55.780;37.520;2023-01-08T06:35:49;101465.66;;;-14.19;56.56
61205;BME280;47068;55.780;37.520;2023-01-08T06:38:15;101475.06;;;-14.16;56.52
61205;BME280;47068;55.780;37.520;2023-01-08T06:40:43;101471.81;;;-14.09;55.93
61205;BME280;47068;55.780;37.520;2023-01-08T06:43:09;101465.13;;;-14.04;56.44
61205;BME280;47068;55.780;37.520;2023-01-08T06:45:34;101470.25;;;-14.03;56.50
61205;BME280;47068;55.780;37.520;2023-01-08T06:48:04;101462.59;;;-14.01;56.25
61205;BME280;47068;55.780;37.520;2023-01-08T06:50:31;101469.50;;;-13.99;56.10
61205;BME280;47068;55.780;37.520;2023-01-08T06:52:57;101469.50;;;-13.99;55.59
61205;BME280;47068;55.780;37.520;2023-01-08T06:55:24;101391.84;;;-14.44;55.28
61205;BME280;47068;55.780;37.520;2023-01-08T06:57:54;101474.72;;;-13.92;56.07
61205;BME280;47068;55.780;37.520;2023-01-08T07:00:20;101245.19;;;-15.33;55.45
61205;BME280;47068;55.780;37.520;2023-01-08T07:02:48;101485.75;;;-13.97;55.59
61205;BME280;47068;55.780;37.520;2023-01-08T07:05:14;101475.19;;;-14.12;55.20
61205;BME280;47068;55.780;37.520;2023-01-08T07:07:39;101427.50;;;-14.50;55.73
61205;BME280;47068;55.780;37.520;2023-01-08T07:10:05;101496.25;;;-14.22;55.35
61205;BME280;47068;55.780;37.520;2023-01-08T07:12:30;101468.59;;;-14.41;56.14
61205;BME280;47068;55.780;37.520;2023-01-08T07:14:56;101456.75;;;-14.39;55.43
61205;BME280;47068;55.780;37.520;2023-01-08T07:17:22;101492.75;;;-14.27;55.31
61205;BME280;47068;55.780;37.520;2023-01-08T07:19:47;101273.63;;;-15.57;56.26
61205;BME280;47068;55.780;37.520;2023-01-08T07:22:12;101499.69;;;-14.21;55.39
61205;BME280;47068;55.780;37.520;2023-01-08T07:24:38;101492.66;;;-14.30;55.22
61205;BME280;47068;55.780;37.520;2023-01-08T07:27:03;101496.91;;;-14.30;55.94
61205;BME280;47068;55.780;37.520;2023-01-08T07:29:29;101496.97;;;-14.29;55.42
61205;BME280;47068;55.780;37.520;2023-01-08T07:31:54;101504.63;;;-14.29;56.05
61205;BME280;47068;55.780;37.520;2023-01-08T07:34:20;101504.63;;;-14.29;55.92
61205;BME280;47068;55.780;37.520;2023-01-08T07:36:45;101513.13;;;-14.30;55.03
61205;BME280;47068;55.780;37.520;2023-01-08T07:39:11;101519.19;;;-14.26;56.01
61205;BME280;47068;55.780;37.520;2023-01-08T07:41:36;101527.75;;;-14.24;55.57
61205;BME280;47068;55.780;37.520;2023-01-08T07:44:02;101526.91;;;-14.25;55.13
61205;BME280;47068;55.780;37.520;2023-01-08T07:46:27;101531.19;;;-14.22;56.07
61205;BME280;47068;55.780;37.520;2023-01-08T07:48:53;101537.19;;;-14.22;55.73
61205;BME280;47068;55.780;37.520;2023-01-08T07:51:19;101539.94;;;-14.13;56.16
61205;BME280;47068;55.780;37.520;2023-01-08T07:53:45;101533.22;;;-14.08;56.24
61205;BME280;47068;55.780;37.520;2023-01-08T07:56:10;101504.06;;;-14.16;56.30
61205;BME280;47068;55.780;37.520;2023-01-08T07:58:36;101483.31;;;-14.29;56.00
61205;BME280;47068;55.780;37.520;2023-01-08T08:01:02;101527.41;;;-14.01;56.08
61205;BME280;47068;55.780;37.520;2023-01-08T08:03:28;101528.16;;;-14.06;55.69
61205;BME280;47068;55.780;37.520;2023-01-08T08:05:58;101499.78;;;-14.18;56.58
61205;BME280;47068;55.780;37.520;2023-01-08T08:08:24;101524.69;;;-14.08;56.42
61205;BME280;47068;55.780;37.520;2023-01-08T08:10:49;101509.47;;;-14.04;56.56
61205;BME280;47068;55.780;37.520;2023-01-08T08:13:15;101504.16;;;-14.13;57.46
61205;BME280;47068;55.780;37.520;2023-01-08T08:15:41;101466.28;;;-14.29;57.07
61205;BME280;47068;55.780;37.520;2023-01-08T08:18:06;101521.44;;;-14.01;56.25
61205;BME280;47068;55.780;37.520;2023-01-08T08:20:32;101450.84;;;-14.33;56.93
61205;BME280;47068;55.780;37.520;2023-01-08T08:23:02;101471.47;;;-14.26;56.75
61205;BME280;47068;55.780;37.520;2023-01-08T08:25:28;101490.13;;;-13.89;56.56
61205;BME280;47068;55.780;37.520;2023-01-08T08:27:59;101523.19;;;-13.58;56.14
61205;BME280;47068;55.780;37.520;2023-01-08T08:30:25;101516.66;;;-13.44;55.75
61205;BME280;47068;55.780;37.520;2023-01-08T08:32:51;101518.69;;;-13.26;55.97
61205;BME280;47068;55.780;37.520;2023-01-08T08:35:17;101499.84;;;-13.30;56.00
61205;BME280;47068;55.780;37.520;2023-01-08T08:37:42;101329.25;;;-14.21;55.57
61205;BME280;47068;55.780;37.520;2023-01-08T08:40:08;101518.97;;;-13.09;55.45
61205;BME280;47068;55.780;37.520;2023-01-08T08:42:34;101465.38;;;-13.47;55.03
61205;BME280;47068;55.780;37.520;2023-01-08T08:44:59;101480.63;;;-13.53;55.06
61205;BME280;47068;55.780;37.520;2023-01-08T08:47:25;101512.50;;;-13.37;55.35
61205;BME280;47068;55.780;37.520;2023-01-08T08:49:50;101501.53;;;-13.30;56.12
61205;BME280;47068;55.780;37.520;2023-01-08T08:52:15;101514.34;;;-13.30;56.01
61205;BME280;47068;55.780;37.520;2023-01-08T08:54:41;101379.88;;;-14.03;55.43
61205;BME280;47068;55.780;37.520;2023-01-08T08:57:07;101504.97;;;-13.30;55.52
61205;BME280;47068;55.780;37.520;2023-01-08T08:59:34;101488.66;;;-13.35;55.78
61205;BME280;47068;55.780;37.520;2023-01-08T09:02:00;101484.53;;;-13.27;56.08
61205;BME280;47068;55.780;37.520;2023-01-08T09:04:28;101494.25;;;-13.06;55.36
61205;BME280;47068;55.780;37.520;2023-01-08T09:06:53;101488.53;;;-12.91;55.85
61205;BME280;47068;55.780;37.520;2023-01-08T09:09:19;101496.50;;;-12.74;55.66
61205;BME280;47068;55.780;37.520;2023-01-08T09:11:46;101500.09;;;-12.63;55.53
61205;BME280;47068;55.780;37.520;2023-01-08T09:14:12;101497.69;;;-12.54;55.66
61205;BME280;47068;55.780;37.520;2023-01-08T09:16:40;101449.44;;;-12.78;54.76
61205;BME280;47068;55.780;37.520;2023-01-08T09:19:05;101461.63;;;-12.63;55.45
61205;BME280;47068;55.780;37.520;2023-01-08T09:21:31;101500.50;;;-12.36;55.22
61205;BME280;47068;55.780;37.520;2023-01-08T09:24:00;101462.50;;;-12.63;54.77
61205;BME280;47068;55.780;37.520;2023-01-08T09:26:25;101447.78;;;-12.76;55.24
61205;BME280;47068;55.780;37.520;2023-01-08T09:28:53;101500.41;;;-12.44;54.82
61205;BME280;47068;55.780;37.520;2023-01-08T09:31:18;101508.84;;;-12.52;54.53
61205;BME280;47068;55.780;37.520;2023-01-08T09:33:46;101512.88;;;-12.65;55.13
61205;BME280;47068;55.780;37.520;2023-01-08T09:36:12;101501.56;;;-12.78;55.09
61205;BME280;47068;55.780;37.520;2023-01-08T09:38:37;101501.53;;;-12.81;55.41
61205;BME280;47068;55.780;37.520;2023-01-08T09:41:10;101506.56;;;-12.85;55.71
61205;BME280;47068;55.780;37.520;2023-01-08T09:43:41;101499.72;;;-12.88;55.40
61205;BME280;47068;55.780;37.520;2023-01-08T09:46:08;101490.22;;;-12.93;55.78
61205;BME280;47068;55.780;37.520;2023-01-08T09:48:38;101485.81;;;-13.02;56.14
61205;BME280;47068;55.780;37.520;2023-01-08T09:51:15;101484.00;;;-13.06;56.20
61205;BME280;47068;55.780;37.520;2023-01-08T09:53:41;101488.41;;;-13.00;56.47
61205;BME280;47068;55.780;37.520;2023-01-08T09:56:16;101486.81;;;-12.92;57.00
61205;BME280;47068;55.780;37.520;2023-01-08T09:58:52;101487.03;;;-12.80;56.91
61205;BME280;47068;55.780;37.520;2023-01-08T10:01:25;101475.22;;;-12.69;56.71
61205;BME280;47068;55.780;37.520;2023-01-08T10:06:49;101430.56;;;-12.85;57.19
61205;BME280;47068;55.780;37.520;2023-01-08T10:09:15;101470.25;;;-12.60;56.49
61205;BME280;47068;55.780;37.520;2023-01-08T10:11:43;101479.72;;;-12.54;56.63
61205;BME280;47068;55.780;37.520;2023-01-08T10:14:24;101486.69;;;-12.47;56.19
61205;BME280;47068;55.780;37.520;2023-01-08T10:16:56;101460.00;;;-12.60;56.56
61205;BME280;47068;55.780;37.520;2023-01-08T10:19:24;101494.56;;;-12.33;56.64
61205;BME280;47068;55.780;37.520;2023-01-08T10:21:50;101427.44;;;-12.67;56.49
61205;BME280;47068;55.780;37.520;2023-01-08T10:24:16;101485.22;;;-12.30;56.41
61205;BME280;47068;55.780;37.520;2023-01-08T10:26:41;101485.22;;;-12.31;56.39
61205;BME280;47068;55.780;37.520;2023-01-08T10:29:12;101482.69;;;-12.27;57.30
61205;BME280;47068;55.780;37.520;2023-01-08T10:31:53;101474.22;;;-12.21;57.26
61205;BME280;47068;55.780;37.520;2023-01-08T10:34:48;101475.94;;;-12.20;56.69
61205;BME280;47068;55.780;37.520;2023-01-08T10:37:22;101472.53;;;-12.19;56.61
61205;BME280;47068;55.780;37.520;2023-01-08T10:39:48;101465.59;;;-12.26;56.70
61205;BME280;47068;55.780;37.520;2023-01-08T10:42:15;101484.66;;;-12.11;57.01
61205;BME280;47068;55.780;37.520;2023-01-08T10:45:10;101483.03;;;-12.04;56.32
61205;BME280;47068;55.780;37.520;2023-01-08T10:47:45;101486.38;;;-12.08;56.03
61205;BME280;47068;55.780;37.520;2023-01-08T10:50:19;101450.09;;;-12.34;55.82
61205;BME280;47068;55.780;37.520;2023-01-08T10:52:58;101487.84;;;-12.27;56.14
61205;BME280;47068;55.780;37.520;2023-01-08T10:55:35;101489.41;;;-12.35;56.10
61205;BME280;47068;55.780;37.520;2023-01-08T10:58:12;101503.94;;;-12.36;56.34
61205;BME280;47068;55.780;37.520;2023-01-08T11:00:38;101449.72;;;-12.61;56.28
61205;BME280;47068;55.780;37.520;2023-01-08T11:03:19;101492.06;;;-12.29;56.80
61205;BME280;47068;55.780;37.520;2023-01-08T11:05:48;101493.00;;;-12.24;56.45
61205;BME280;47068;55.780;37.520;2023-01-08T11:08:19;101485.38;;;-12.19;56.58
61205;BME280;47068;55.780;37.520;2023-01-08T11:10:57;101482.84;;;-12.16;56.69
61205;BME280;47068;55.780;37.520;2023-01-08T11:13:23;101438.00;;;-12.43;56.02
61205;BME280;47068;55.780;37.520;2023-01-08T11:16:08;101488.06;;;-12.10;56.01
61205;BME280;47068;55.780;37.520;2023-01-08T11:18:48;101483.75;;;-12.13;56.98
61205;BME280;47068;55.780;37.520;2023-01-08T11:21:23;101486.44;;;-12.05;56.76
61205;BME280;47068;55.780;37.520;2023-01-08T11:24:42;101483.97;;;-11.98;56.93
61205;BME280;47068;55.780;37.520;2023-01-08T11:27:35;101479.84;;;-11.85;56.09
61205;BME280;47068;55.780;37.520;2023-01-08T11:30:18;101487.66;;;-11.73;56.02
61205;BME280;47068;55.780;37.520;2023-01-08T11:32:54;101486.03;;;-11.65;56.40
61205;BME280;47068;55.780;37.520;2023-01-08T11:37:55;101478.47;;;-11.52;55.84
61205;BME280;47068;55.780;37.520;2023-01-08T12:08:06;101468.31;;;-11.43;56.31
61205;BME280;47068;55.780;37.520;2023-01-08T12:10:58;101468.31;;;-11.40;56.51
61205;BME280;47068;55.780;37.520;2023-01-08T12:30:25;101480.97;;;-11.62;56.12
61205;BME280;47068;55.780;37.520;2023-01-08T12:35:48;101488.53;;;-11.71;56.57
61205;BME280;47068;55.780;37.520;2023-01-08T12:38:27;101477.41;;;-11.71;56.41
61205;BME280;47068;55.780;37.520;2023-01-08T12:40:57;101489.38;;;-11.72;56.85
61205;BME280;47068;55.780;37.520;2023-01-08T12:46:13;101485.09;;;-11.76;56.95
61205;BME280;47068;55.780;37.520;2023-01-08T12:48:43;101486.78;;;-11.78;56.92
61205;BME280;47068;55.780;37.520;2023-01-08T12:51:23;101486.78;;;-11.75;56.57
61205;BME280;47068;55.780;37.520;2023-01-08T13:04:42;101490.22;;;-11.73;56.74
61205;BME280;47068;55.780;37.520;2023-01-08T13:07:18;101485.03;;;-11.79;56.90
61205;BME280;47068;55.780;37.520;2023-01-08T13:09:44;101491.84;;;-11.84;57.09
61205;BME280;47068;55.780;37.520;2023-01-08T13:12:13;101480.72;;;-11.83;57.13
61205;BME280;47068;55.780;37.520;2023-01-08T13:14:41;101491.72;;;-11.93;57.28
61205;BME280;47068;55.780;37.520;2023-01-08T13:17:17;101463.16;;;-12.19;57.77
61205;BME280;47068;55.780;37.520;2023-01-08T13:20:03;101467.34;;;-12.22;57.63
61205;BME280;47068;55.780;37.520;2023-01-08T13:22:35;101492.22;;;-12.20;57.84
61205;BME280;47068;55.780;37.520;2023-01-08T13:27:40;101496.31;;;-12.29;58.19
61205;BME280;47068;55.780;37.520;2023-01-08T13:30:31;101498.72;;;-12.42;58.34
61205;BME280;47068;55.780;37.520;2023-01-08T13:32:57;101459.75;;;-12.75;58.77
61205;BME280;47068;55.780;37.520;2023-01-08T13:35:28;101457.09;;;-12.81;58.85
61205;BME280;47068;55.780;37.520;2023-01-08T13:38:14;101499.41;;;-12.53;59.04
61205;BME280;47068;55.780;37.520;2023-01-08T13:43:19;101499.44;;;-12.52;58.99
61205;BME280;47068;55.780;37.520;2023-01-08T13:48:39;101518.25;;;-12.50;59.11
61205;BME280;47068;55.780;37.520;2023-01-08T13:51:27;101526.06;;;-12.42;59.13
61205;BME280;47068;55.780;37.520;2023-01-08T13:53:54;101534.69;;;-12.37;59.12
61205;BME280;47068;55.780;37.520;2023-01-08T13:56:19;101526.25;;;-12.31;58.62
61205;BME280;47068;55.780;37.520;2023-01-08T13:58:52;101526.16;;;-12.36;59.04
61205;BME280;47068;55.780;37.520;2023-01-08T14:01:20;101509.72;;;-12.49;59.14
61205;BME280;47068;55.780;37.520;2023-01-08T14:03:47;101475.06;;;-12.78;59.22
61205;BME280;47068;55.780;37.520;2023-01-08T14:06:19;101541.38;;;-12.47;59.20
61205;BME280;47068;55.780;37.520;2023-01-08T14:08:50;101538.75;;;-12.50;59.22